createdAt,value
2023-04-16T00:00:39.575Z,7.90
2023-04-16T00:03:07.936Z,7.90
2023-04-16T00:05:36.185Z,7.90
2023-04-16T00:08:04.253Z,7.90
2023-04-16T00:10:32.445Z,7.90
2023-04-16T00:13:00.452Z,7.90
2023-04-16T00:15:28.468Z,7.90
2023-04-16T00:17:56.578Z,7.90
2023-04-16T00:20:24.679Z,7.90
2023-04-16T00:22:52.682Z,7.90
2023-04-16T00:25:20.760Z,8.00
2023-04-16T00:27:48.759Z,7.90
2023-04-16T00:30:17.192Z,7.90
2023-04-16T00:32:45.416Z,7.90
2023-04-16T00:35:13.534Z,7.90
2023-04-16T00:37:41.659Z,7.90
2023-04-16T00:40:12.790Z,7.90
2023-04-16T00:42:40.893Z,7.90
2023-04-16T00:45:12.386Z,7.90
2023-04-16T00:47:42.004Z,7.90
2023-04-16T00:50:10.187Z,7.90
2023-04-16T00:52:38.833Z,7.90
2023-04-16T00:55:08.711Z,7.90
2023-04-16T00:57:36.824Z,7.90
2023-04-16T01:00:05.066Z,7.90
2023-04-16T01:02:33.107Z,7.90
2023-04-16T01:05:02.103Z,8.00
2023-04-16T01:07:30.454Z,7.90
2023-04-16T01:09:58.512Z,7.90
2023-04-16T01:12:26.716Z,7.90
2023-04-16T01:14:54.798Z,7.90
2023-04-16T01:17:22.870Z,7.80
2023-04-16T01:19:50.964Z,7.80
2023-04-16T01:22:20.503Z,7.80
2023-04-16T01:24:48.612Z,7.80
2023-04-16T01:27:17.002Z,7.90
2023-04-16T01:29:45.082Z,7.90
2023-04-16T01:32:13.776Z,7.90
2023-04-16T01:34:42.792Z,7.90
2023-04-16T01:37:12.142Z,8.00
2023-04-16T01:39:40.243Z,8.00
2023-04-16T01:42:09.576Z,8.00
2023-04-16T01:44:37.686Z,8.10
2023-04-16T01:47:05.814Z,8.00
2023-04-16T01:49:35.095Z,8.00
2023-04-16T01:52:03.122Z,7.90
2023-04-16T01:54:31.334Z,7.90
2023-04-16T01:57:00.258Z,7.90
2023-04-16T01:59:28.265Z,7.90
2023-04-16T02:01:57.032Z,7.90
2023-04-16T02:04:25.164Z,7.90
2023-04-16T02:06:53.282Z,7.80
2023-04-16T02:09:21.377Z,7.90
2023-04-16T02:11:49.648Z,7.90
2023-04-16T02:14:17.766Z,7.90
2023-04-16T02:16:45.869Z,7.90
2023-04-16T02:19:23.176Z,7.90
2023-04-16T02:21:54.632Z,8.00
2023-04-16T02:24:25.789Z,8.00
2023-04-16T02:26:58.283Z,7.90
2023-04-16T02:29:26.645Z,7.90
2023-04-16T02:32:01.893Z,8.00
2023-04-16T02:34:31.724Z,8.00
2023-04-16T02:36:59.788Z,8.00
2023-04-16T02:39:28.451Z,8.00
2023-04-16T02:41:56.625Z,8.10
2023-04-16T02:44:24.668Z,8.10
2023-04-16T02:46:52.893Z,8.10
2023-04-16T02:49:20.919Z,8.00
2023-04-16T02:51:49.778Z,8.10
2023-04-16T02:54:17.779Z,8.10
2023-04-16T02:56:45.900Z,8.10
2023-04-16T02:59:13.947Z,8.00
2023-04-16T03:01:42.326Z,8.00
2023-04-16T03:04:10.583Z,8.00
2023-04-16T03:06:38.665Z,8.00
2023-04-16T03:09:06.695Z,8.00
2023-04-16T03:11:34.750Z,8.00
2023-04-16T03:14:02.776Z,8.10
2023-04-16T03:16:31.764Z,8.10
2023-04-16T03:18:59.795Z,8.20
2023-04-16T03:21:29.130Z,8.20
2023-04-16T03:23:57.392Z,8.20
2023-04-16T03:26:25.419Z,8.20
2023-04-16T03:28:53.408Z,8.20
2023-04-16T03:31:21.923Z,8.20
2023-04-16T03:33:50.040Z,8.30
2023-04-16T03:36:18.173Z,8.30
2023-04-16T03:38:46.400Z,8.20
2023-04-16T03:41:15.091Z,8.20
2023-04-16T03:43:43.365Z,8.30
2023-04-16T03:46:12.014Z,8.20
2023-04-16T03:48:40.204Z,8.20
2023-04-16T03:51:08.422Z,8.20
2023-04-16T03:53:36.538Z,8.20
2023-04-16T03:56:04.661Z,8.10
2023-04-16T03:58:33.010Z,8.20
2023-04-16T04:01:01.055Z,8.20
2023-04-16T04:03:29.441Z,8.20
2023-04-16T04:05:57.684Z,8.20
2023-04-16T04:08:32.503Z,8.20
2023-04-16T04:11:00.616Z,8.20
2023-04-16T04:13:29.247Z,8.30
2023-04-16T04:15:57.894Z,8.20
2023-04-16T04:18:26.037Z,8.20
2023-04-16T04:20:54.460Z,8.30
2023-04-16T04:23:26.410Z,8.20
2023-04-16T04:25:54.479Z,8.20
2023-04-16T04:28:22.631Z,8.20
2023-04-16T04:30:50.891Z,8.20
2023-04-16T04:33:19.821Z,8.30
2023-04-16T04:35:48.780Z,8.20
2023-04-16T04:38:21.042Z,8.20
2023-04-16T04:40:50.408Z,8.20
2023-04-16T04:43:20.894Z,8.20
2023-04-16T04:45:50.380Z,8.20
2023-04-16T04:48:19.074Z,8.30
2023-04-16T04:50:47.996Z,8.30
2023-04-16T04:53:16.232Z,8.20
2023-04-16T04:55:44.438Z,8.20
2023-04-16T04:58:12.670Z,8.20
2023-04-16T05:00:44.105Z,8.20
2023-04-16T05:03:13.034Z,8.20
2023-04-16T05:05:42.272Z,8.30
2023-04-16T05:08:10.315Z,8.30
2023-04-16T05:10:38.330Z,8.30
2023-04-16T05:13:06.407Z,8.30
2023-04-16T05:15:34.425Z,8.30
2023-04-16T05:18:02.640Z,8.30
2023-04-16T05:20:30.726Z,8.40
2023-04-16T05:22:58.782Z,8.30
2023-04-16T05:25:27.010Z,8.40
2023-04-16T05:27:55.105Z,8.40
2023-04-16T05:30:23.161Z,8.40
2023-04-16T05:32:51.289Z,8.40
2023-04-16T05:35:19.348Z,8.40
2023-04-16T05:37:47.366Z,8.40
2023-04-16T05:40:16.482Z,8.40
2023-04-16T05:42:44.544Z,8.40
2023-04-16T05:45:18.659Z,8.50
2023-04-16T05:47:50.177Z,8.50
2023-04-16T05:50:20.929Z,8.50
2023-04-16T05:52:51.905Z,8.60
2023-04-16T05:55:19.953Z,8.60
2023-04-16T05:57:52.507Z,8.60
2023-04-16T06:00:20.735Z,8.60
2023-04-16T06:02:48.826Z,8.60
2023-04-16T06:05:22.327Z,8.60
2023-04-16T06:07:53.243Z,8.70
2023-04-16T06:10:24.451Z,8.70
2023-04-16T06:12:52.868Z,8.70
2023-04-16T06:15:20.848Z,8.80
2023-04-16T06:17:49.145Z,8.80
2023-04-16T06:20:17.261Z,8.80
2023-04-16T06:22:45.366Z,8.80
2023-04-16T06:25:13.448Z,8.80
2023-04-16T06:27:41.560Z,8.80
2023-04-16T06:30:13.804Z,8.80
2023-04-16T06:32:42.203Z,8.80
2023-04-16T06:35:10.668Z,8.90
2023-04-16T06:37:38.711Z,8.80
2023-04-16T06:40:07.129Z,8.90
2023-04-16T06:42:35.170Z,8.90
2023-04-16T06:45:03.247Z,8.90
2023-04-16T06:47:31.357Z,8.90
2023-04-16T06:49:59.387Z,8.90
2023-04-16T06:52:27.491Z,8.90
2023-04-16T06:54:55.588Z,8.90
2023-04-16T06:57:23.587Z,8.90
2023-04-16T06:59:51.608Z,8.90
2023-04-16T07:02:19.799Z,9.00
2023-04-16T07:04:47.978Z,9.00
2023-04-16T07:07:16.018Z,9.00
2023-04-16T07:09:44.018Z,9.00
2023-04-16T07:12:16.337Z,9.00
2023-04-16T07:14:44.382Z,9.00
2023-04-16T07:17:13.396Z,9.00
2023-04-16T07:19:41.488Z,8.90
2023-04-16T07:22:10.862Z,9.00
2023-04-16T07:24:38.920Z,9.00
2023-04-16T07:27:07.044Z,9.10
2023-04-16T07:29:35.133Z,9.20
2023-04-16T07:32:03.161Z,9.20
2023-04-16T07:34:31.247Z,9.20
2023-04-16T07:36:59.272Z,9.20
2023-04-16T07:39:27.900Z,9.30
2023-04-16T07:41:56.543Z,9.40
2023-04-16T07:44:25.471Z,9.50
2023-04-16T07:46:54.135Z,9.60
2023-04-16T07:49:22.471Z,9.70
2023-04-16T07:51:50.651Z,9.80
2023-04-16T07:54:23.848Z,9.80
2023-04-16T07:56:52.039Z,9.90
2023-04-16T07:59:23.352Z,9.90
2023-04-16T08:01:53.560Z,9.80
2023-04-16T08:04:26.364Z,9.90
2023-04-16T08:06:54.946Z,10.00
2023-04-16T08:09:24.133Z,10.00
2023-04-16T08:11:52.342Z,10.10
2023-04-16T08:14:23.562Z,10.10
2023-04-16T08:16:53.353Z,10.10
2023-04-16T08:19:24.423Z,10.20
2023-04-16T08:21:52.598Z,10.20
2023-04-16T08:24:20.929Z,10.20
2023-04-16T08:26:49.262Z,10.30
2023-04-16T08:29:19.083Z,10.30
2023-04-16T08:31:47.494Z,10.30
2023-04-16T08:34:15.670Z,10.30
2023-04-16T08:36:43.708Z,10.40
2023-04-16T08:39:12.411Z,10.40
2023-04-16T08:41:44.147Z,10.50
2023-04-16T08:44:21.990Z,10.50
2023-04-16T08:46:50.697Z,10.60
2023-04-16T08:49:21.732Z,10.70
2023-04-16T08:51:52.622Z,10.70
2023-04-16T08:54:26.441Z,10.70
2023-04-16T08:56:54.792Z,10.70
2023-04-16T08:59:23.203Z,10.70
2023-04-16T09:01:53.701Z,10.60
2023-04-16T09:04:22.748Z,10.60
2023-04-16T09:06:51.064Z,10.60
2023-04-16T09:09:19.577Z,10.60
2023-04-16T09:11:48.418Z,10.70
2023-04-16T09:14:16.843Z,10.70
2023-04-16T09:16:45.756Z,10.80
2023-04-16T09:19:13.956Z,10.70
2023-04-16T09:21:42.701Z,10.80
2023-04-16T09:26:53.844Z,11.00
2023-04-16T09:29:40.659Z,10.90
2023-04-16T09:32:09.956Z,11.00
2023-04-16T09:34:57.250Z,11.20
2023-04-16T09:37:26.036Z,11.20
2023-04-16T09:39:56.420Z,11.00
2023-04-16T09:42:32.205Z,10.90
2023-04-16T09:45:04.150Z,11.10
2023-04-16T09:47:43.980Z,11.30
2023-04-16T09:50:18.621Z,11.50
2023-04-16T09:52:52.350Z,11.70
2023-04-16T09:55:28.709Z,11.90
2023-04-16T09:58:00.656Z,12.00
2023-04-16T10:00:29.961Z,12.10
2023-04-16T10:03:04.964Z,12.20
2023-04-16T10:05:33.075Z,12.20
2023-04-16T10:08:02.534Z,12.50
2023-04-16T10:10:30.939Z,12.70
2023-04-16T10:12:59.304Z,12.90
2023-04-16T10:15:27.610Z,12.80
2023-04-16T10:17:56.021Z,12.70
2023-04-16T10:20:25.170Z,12.80
2023-04-16T10:22:54.130Z,12.90
2023-04-16T10:25:22.856Z,13.00
2023-04-16T10:27:51.841Z,13.10
2023-04-16T10:30:25.710Z,12.90
2023-04-16T10:32:54.723Z,12.60
2023-04-16T10:35:23.054Z,12.50
2023-04-16T10:37:57.513Z,12.50
2023-04-16T10:40:27.112Z,12.50
2023-04-16T10:43:04.168Z,12.40
2023-04-16T10:45:39.192Z,12.30
2023-04-16T10:48:10.042Z,12.10
2023-04-16T10:50:38.404Z,12.10
2023-04-16T10:53:24.339Z,11.90
2023-04-16T10:55:58.759Z,11.70
2023-04-16T10:58:33.638Z,11.70
2023-04-16T11:01:02.585Z,11.70
2023-04-16T11:03:34.338Z,11.50
2023-04-16T11:06:13.831Z,11.50
2023-04-16T11:08:54.502Z,11.60
2023-04-16T11:11:35.016Z,11.70
2023-04-16T11:14:13.614Z,11.50
2023-04-16T11:16:42.860Z,11.50
2023-04-16T11:19:17.033Z,11.60
2023-04-16T11:21:46.547Z,11.70
2023-04-16T11:24:14.548Z,11.70
2023-04-16T11:26:42.542Z,11.60
2023-04-16T11:29:15.660Z,11.50
2023-04-16T11:31:43.953Z,11.70
2023-04-16T11:34:12.034Z,11.70
2023-04-16T11:36:48.962Z,11.80
2023-04-16T11:39:17.299Z,11.80
2023-04-16T11:41:45.327Z,11.80
2023-04-16T11:44:19.703Z,11.80
2023-04-16T11:46:47.961Z,11.70
2023-04-16T11:49:18.590Z,11.60
2023-04-16T11:51:48.227Z,11.50
2023-04-16T11:54:20.676Z,11.40
2023-04-16T11:56:49.609Z,11.30
2023-04-16T11:59:20.356Z,11.20
2023-04-16T12:01:50.413Z,11.30
2023-04-16T12:04:20.839Z,11.20
2023-04-16T12:07:11.394Z,11.20
2023-04-16T12:09:41.054Z,11.20
2023-04-16T12:12:34.599Z,11.20
2023-04-16T12:15:06.258Z,11.10
2023-04-16T12:17:34.809Z,11.00
2023-04-16T12:20:07.371Z,11.10
2023-04-16T12:22:37.437Z,11.10
2023-04-16T12:25:11.863Z,11.20
2023-04-16T12:27:48.577Z,11.30
2023-04-16T12:30:18.686Z,11.40
2023-04-16T12:32:48.511Z,11.50
2023-04-16T12:35:30.566Z,11.50
2023-04-16T12:37:58.729Z,11.40
2023-04-16T12:40:26.874Z,11.30
2023-04-16T12:42:55.036Z,11.30
2023-04-16T12:45:27.032Z,11.30
2023-04-16T12:50:35.862Z,11.40
2023-04-16T12:53:03.932Z,11.60
2023-04-16T12:55:32.225Z,11.70
2023-04-16T12:58:00.276Z,11.80
2023-04-16T13:00:28.299Z,11.80
2023-04-16T13:02:56.426Z,12.10
2023-04-16T13:05:24.616Z,12.50
2023-04-16T13:07:52.812Z,13.00
2023-04-16T13:10:22.370Z,13.30
2023-04-16T13:12:50.469Z,13.30
2023-04-16T13:15:18.476Z,13.20
2023-04-16T13:17:46.624Z,13.10
2023-04-16T13:20:14.711Z,12.90
2023-04-16T13:22:42.924Z,12.80
2023-04-16T13:25:11.118Z,12.80
2023-04-16T13:27:39.167Z,12.90
2023-04-16T13:30:07.962Z,13.00
2023-04-16T13:32:36.060Z,13.00
2023-04-16T13:35:04.113Z,13.00
2023-04-16T13:37:32.253Z,12.90
2023-04-16T13:40:02.060Z,12.90
2023-04-16T13:42:30.175Z,12.70
2023-04-16T13:44:59.424Z,12.60
2023-04-16T13:47:27.523Z,12.50
2023-04-16T13:49:55.577Z,12.50
2023-04-16T13:52:23.953Z,12.60
2023-04-16T13:54:52.028Z,12.60
2023-04-16T13:57:23.300Z,12.70
2023-04-16T13:59:51.475Z,12.80
2023-04-16T14:02:20.515Z,13.00
2023-04-16T14:04:48.797Z,13.00
2023-04-16T14:07:18.480Z,13.00
2023-04-16T14:09:46.587Z,12.90
2023-04-16T14:12:14.666Z,12.80
2023-04-16T14:14:43.128Z,12.70
2023-04-16T14:17:12.100Z,12.60
2023-04-16T14:19:40.108Z,12.50
2023-04-16T14:22:09.384Z,12.50
2023-04-16T14:24:42.353Z,12.40
2023-04-16T14:27:15.108Z,12.40
2023-04-16T14:29:43.229Z,12.50
2023-04-16T14:32:11.489Z,12.50
2023-04-16T14:34:39.548Z,12.60
2023-04-16T14:37:07.974Z,12.70
2023-04-16T14:39:36.187Z,12.80
2023-04-16T14:42:04.572Z,12.90
2023-04-16T14:44:32.555Z,12.80
2023-04-16T14:47:00.580Z,12.80
2023-04-16T14:49:29.733Z,13.00
2023-04-16T14:51:58.378Z,13.20
2023-04-16T14:54:26.457Z,13.50
2023-04-16T14:56:54.502Z,13.70
2023-04-16T14:59:22.775Z,13.70
2023-04-16T15:01:50.849Z,13.50
2023-04-16T15:04:19.312Z,13.50
2023-04-16T15:06:47.686Z,13.60
2023-04-16T15:09:15.726Z,13.60
2023-04-16T15:11:43.816Z,13.70
2023-04-16T15:14:12.042Z,13.40
2023-04-16T15:16:40.372Z,13.30
2023-04-16T15:19:08.726Z,13.10
2023-04-16T15:21:37.080Z,12.90
2023-04-16T15:24:05.408Z,12.70
2023-04-16T15:26:33.475Z,12.70
2023-04-16T15:29:01.775Z,12.60
2023-04-16T15:31:29.846Z,12.60
2023-04-16T15:33:58.214Z,12.60
2023-04-16T15:36:27.429Z,12.60
2023-04-16T15:38:56.224Z,12.50
2023-04-16T15:41:24.481Z,12.40
2023-04-16T15:43:52.599Z,12.40
2023-04-16T15:46:20.664Z,12.40
2023-04-16T15:48:48.723Z,12.40
2023-04-16T15:51:16.932Z,12.30
2023-04-16T15:53:46.585Z,12.30
2023-04-16T15:56:15.476Z,12.20
2023-04-16T15:58:44.244Z,12.20
2023-04-16T16:01:12.665Z,12.00
2023-04-16T16:03:40.965Z,12.00
2023-04-16T16:06:10.187Z,11.90
2023-04-16T16:08:39.596Z,11.90
2023-04-16T16:11:08.258Z,11.80
2023-04-16T16:13:38.243Z,11.80
2023-04-16T16:16:06.497Z,11.80
2023-04-16T16:18:37.577Z,11.70
2023-04-16T16:21:05.637Z,11.60
2023-04-16T16:23:33.753Z,11.60
2023-04-16T16:26:01.897Z,11.50
2023-04-16T16:28:29.889Z,11.40
2023-04-16T16:31:00.037Z,11.40
2023-04-16T16:33:29.971Z,11.40
2023-04-16T16:35:58.078Z,11.40
2023-04-16T16:38:26.095Z,11.40
2023-04-16T16:40:54.139Z,11.40
2023-04-16T16:43:22.228Z,11.40
2023-04-16T16:45:50.278Z,11.40
2023-04-16T16:48:18.327Z,11.30
2023-04-16T16:50:46.348Z,11.20
2023-04-16T16:53:14.456Z,11.20
2023-04-16T16:55:42.717Z,11.20
2023-04-16T16:58:11.009Z,11.10
2023-04-16T17:00:39.260Z,11.10
2023-04-16T17:03:07.675Z,11.00
2023-04-16T17:05:36.060Z,11.00
2023-04-16T17:08:04.146Z,11.00
2023-04-16T17:10:32.387Z,11.00
2023-04-16T17:13:00.420Z,10.90
2023-04-16T17:15:28.468Z,10.90
2023-04-16T17:17:56.614Z,10.80
2023-04-16T17:20:24.677Z,10.80
2023-04-16T17:22:52.749Z,10.70
2023-04-16T17:25:20.833Z,10.60
2023-04-16T17:27:48.936Z,10.60
2023-04-16T17:30:17.186Z,10.60
2023-04-16T17:32:45.455Z,10.50
2023-04-16T17:35:15.115Z,10.50
2023-04-16T17:37:43.221Z,10.50
2023-04-16T17:40:11.477Z,10.50
2023-04-16T17:42:39.832Z,10.40
2023-04-16T17:45:08.490Z,10.40
2023-04-16T17:47:37.639Z,10.30
2023-04-16T17:50:05.987Z,10.30
2023-04-16T17:52:34.010Z,10.30
2023-04-16T17:55:02.662Z,10.20
2023-04-16T17:57:30.784Z,10.20
2023-04-16T17:59:59.014Z,10.20
2023-04-16T18:02:27.256Z,10.30
2023-04-16T18:04:55.670Z,10.20
2023-04-16T18:07:23.841Z,10.20
2023-04-16T18:09:52.010Z,10.20
2023-04-16T18:12:20.234Z,10.20
2023-04-16T18:14:48.248Z,10.20
2023-04-16T18:17:16.855Z,10.20
2023-04-16T18:19:45.700Z,10.20
2023-04-16T18:22:14.533Z,10.20
2023-04-16T18:24:42.598Z,10.20
2023-04-16T18:27:10.670Z,10.20
2023-04-16T18:29:45.165Z,10.20
2023-04-16T18:32:16.463Z,10.10
2023-04-16T18:34:45.504Z,10.10
2023-04-16T18:37:13.612Z,10.10
2023-04-16T18:39:41.844Z,10.00
2023-04-16T18:42:09.881Z,10.10
2023-04-16T18:44:38.032Z,10.00
2023-04-16T18:47:06.136Z,10.10
2023-04-16T18:49:34.198Z,10.00
2023-04-16T18:52:03.120Z,10.00
2023-04-16T18:54:32.282Z,10.00
2023-04-16T18:57:00.911Z,10.00
2023-04-16T18:59:29.345Z,10.00
2023-04-16T19:01:57.493Z,10.00
2023-04-16T19:04:25.692Z,10.00
2023-04-16T19:06:55.032Z,10.00
2023-04-16T19:09:23.421Z,10.00
2023-04-16T19:11:51.817Z,10.00
2023-04-16T19:14:19.984Z,10.00
2023-04-16T19:16:48.561Z,10.00
2023-04-16T19:19:20.942Z,10.00
2023-04-16T19:21:50.586Z,9.90
2023-04-16T19:24:20.089Z,10.00
2023-04-16T19:26:48.925Z,10.00
2023-04-16T19:29:19.209Z,9.90
2023-04-16T19:31:48.436Z,9.90
2023-04-16T19:34:17.136Z,9.90
2023-04-16T19:36:46.285Z,9.80
2023-04-16T19:39:14.358Z,9.80
2023-04-16T19:41:42.476Z,9.80
2023-04-16T19:44:12.202Z,9.80
2023-04-16T19:46:40.468Z,9.80
2023-04-16T19:49:08.687Z,9.80
2023-04-16T19:51:36.972Z,9.80
2023-04-16T19:54:05.043Z,9.80
2023-04-16T19:56:33.206Z,9.80
2023-04-16T19:59:02.203Z,9.70
2023-04-16T20:01:32.089Z,9.70
2023-04-16T20:04:02.533Z,9.70
2023-04-16T20:06:30.998Z,9.70
2023-04-16T20:08:59.143Z,9.60
2023-04-16T20:11:27.313Z,9.60
2023-04-16T20:13:55.900Z,9.60
2023-04-16T20:16:24.530Z,9.60
2023-04-16T20:18:55.372Z,9.60
2023-04-16T20:21:23.475Z,9.60
2023-04-16T20:23:51.573Z,9.60
2023-04-16T20:26:19.693Z,9.60
2023-04-16T20:28:47.724Z,9.60
2023-04-16T20:31:15.877Z,9.60
2023-04-16T20:33:43.908Z,9.50
2023-04-16T20:36:12.269Z,9.50
2023-04-16T20:38:42.523Z,9.50
2023-04-16T20:41:18.168Z,9.50
2023-04-16T20:43:47.950Z,9.60
2023-04-16T20:46:16.009Z,9.60
2023-04-16T20:48:44.069Z,9.50
2023-04-16T20:51:12.279Z,9.50
2023-04-16T20:53:40.328Z,9.50
2023-04-16T20:56:10.229Z,9.50
2023-04-16T20:58:38.285Z,9.50
2023-04-16T21:01:07.399Z,9.50
2023-04-16T21:03:35.893Z,9.50
2023-04-16T21:06:05.071Z,9.40
2023-04-16T21:08:33.831Z,9.40
2023-04-16T21:11:01.894Z,9.40
2023-04-16T21:13:29.903Z,9.40
2023-04-16T21:15:57.994Z,9.40
2023-04-16T21:18:26.054Z,9.40
2023-04-16T21:20:54.252Z,9.40
2023-04-16T21:23:22.384Z,9.40
2023-04-16T21:25:50.375Z,9.40
2023-04-16T21:28:18.606Z,9.40
2023-04-16T21:30:46.659Z,9.40
2023-04-16T21:33:16.018Z,9.40
2023-04-16T21:35:45.261Z,9.40
2023-04-16T21:38:13.299Z,9.30
2023-04-16T21:40:44.413Z,9.40
2023-04-16T21:43:12.456Z,9.40
2023-04-16T21:45:42.305Z,9.30
2023-04-16T21:48:13.631Z,9.30
2023-04-16T21:50:41.857Z,9.30
2023-04-16T21:53:10.316Z,9.20
2023-04-16T21:55:39.054Z,9.20
2023-04-16T21:58:07.748Z,9.20
2023-04-16T22:00:35.847Z,9.20
2023-04-16T22:03:05.559Z,9.20
2023-04-16T22:05:34.506Z,9.20
2023-04-16T22:08:10.802Z,9.10
2023-04-16T22:10:49.372Z,9.10
2023-04-16T22:13:19.146Z,9.10
2023-04-16T22:15:47.400Z,9.10
2023-04-16T22:18:15.485Z,9.10
2023-04-16T22:20:43.561Z,9.10
2023-04-16T22:23:11.592Z,9.10
2023-04-16T22:25:39.612Z,9.00
2023-04-16T22:28:07.654Z,9.00
2023-04-16T22:30:35.716Z,9.00
2023-04-16T22:33:05.110Z,9.00
2023-04-16T22:35:33.336Z,9.00
2023-04-16T22:38:01.345Z,9.00
2023-04-16T22:40:31.860Z,9.00
2023-04-16T22:42:59.889Z,9.00
2023-04-16T22:45:28.580Z,9.00
2023-04-16T22:47:56.772Z,9.00
2023-04-16T22:50:24.832Z,9.00
2023-04-16T22:52:52.942Z,9.00
2023-04-16T22:55:21.020Z,9.00
2023-04-16T22:57:49.136Z,9.00
2023-04-16T23:00:19.072Z,9.00
2023-04-16T23:02:47.229Z,9.00
2023-04-16T23:05:15.481Z,9.00
2023-04-16T23:07:43.605Z,8.90
2023-04-16T23:10:11.902Z,9.00
2023-04-16T23:12:42.962Z,9.00
2023-04-16T23:15:11.373Z,9.00
2023-04-16T23:17:39.470Z,9.00
2023-04-16T23:20:08.353Z,9.00
2023-04-16T23:22:37.305Z,9.00
2023-04-16T23:25:05.554Z,9.00
2023-04-16T23:27:33.830Z,9.00
2023-04-16T23:30:02.059Z,9.00
2023-04-16T23:32:30.301Z,9.00
2023-04-16T23:34:58.607Z,9.00
2023-04-16T23:37:26.827Z,9.00
2023-04-16T23:39:55.280Z,9.00
2023-04-16T23:42:23.360Z,9.00
2023-04-16T23:44:51.545Z,9.00
2023-04-16T23:47:19.607Z,9.00
2023-04-16T23:49:47.702Z,9.00
2023-04-16T23:52:15.772Z,8.90
2023-04-16T23:54:43.881Z,8.90
2023-04-16T23:57:12.017Z,8.90
